createdAt,value
2022-11-05T00:01:21.613Z,100.00
2022-11-05T00:04:09.524Z,100.00
2022-11-05T00:06:57.171Z,100.00
2022-11-05T00:09:30.726Z,100.00
2022-11-05T00:12:20.864Z,100.00
2022-11-05T00:15:09.517Z,100.00
2022-11-05T00:17:40.753Z,100.00
2022-11-05T00:20:14.076Z,100.00
2022-11-05T00:23:02.365Z,100.00
2022-11-05T00:25:32.923Z,100.00
2022-11-05T00:28:05.352Z,100.00
2022-11-05T00:30:35.825Z,100.00
2022-11-05T00:33:06.199Z,100.00
2022-11-05T00:35:36.514Z,100.00
2022-11-05T00:38:06.825Z,100.00
2022-11-05T00:40:37.541Z,100.00
2022-11-05T00:43:25.325Z,100.00
2022-11-05T00:45:55.648Z,100.00
2022-11-05T00:48:43.638Z,100.00
2022-11-05T00:51:14.110Z,100.00
2022-11-05T00:53:44.569Z,100.00
2022-11-05T00:56:15.024Z,100.00
2022-11-05T00:58:45.451Z,100.00
2022-11-05T01:01:15.888Z,100.00
2022-11-05T01:03:51.459Z,100.00
2022-11-05T01:06:22.403Z,100.00
2022-11-05T01:08:52.840Z,100.00
2022-11-05T01:11:33.997Z,100.00
2022-11-05T01:14:07.665Z,100.00
2022-11-05T01:16:39.211Z,100.00
2022-11-05T01:19:11.657Z,100.00
2022-11-05T01:21:42.064Z,100.00
2022-11-05T01:24:13.656Z,100.00
2022-11-05T01:26:44.028Z,100.00
2022-11-05T01:29:14.610Z,100.00
2022-11-05T01:31:45.319Z,100.00
2022-11-05T01:34:15.694Z,100.00
2022-11-05T01:36:46.070Z,100.00
2022-11-05T01:39:16.799Z,100.00
2022-11-05T01:41:47.190Z,100.00
2022-11-05T01:44:52.497Z,100.00
2022-11-05T01:47:37.508Z,100.00
2022-11-05T01:50:27.716Z,100.00
2022-11-05T01:53:03.655Z,100.00
2022-11-05T01:55:38.103Z,100.00
2022-11-05T01:58:12.748Z,100.00
2022-11-05T02:00:43.859Z,100.00
2022-11-05T02:03:16.087Z,100.00
2022-11-05T02:05:49.136Z,100.00
2022-11-05T02:08:26.997Z,100.00
2022-11-05T02:10:58.825Z,100.00
2022-11-05T02:13:29.127Z,100.00
2022-11-05T02:16:08.249Z,100.00
2022-11-05T02:18:50.669Z,100.00
2022-11-05T02:21:51.932Z,100.00
2022-11-05T02:24:42.772Z,100.00
2022-11-05T02:27:22.619Z,100.00
2022-11-05T02:30:10.574Z,100.00
2022-11-05T02:33:05.120Z,100.00
2022-11-05T02:35:52.618Z,100.00
2022-11-05T02:38:36.425Z,100.00
2022-11-05T02:41:15.005Z,100.00
2022-11-05T02:43:56.526Z,100.00
2022-11-05T02:46:32.506Z,100.00
2022-11-05T02:49:10.378Z,100.00
2022-11-05T02:51:49.341Z,100.00
2022-11-05T02:54:26.468Z,100.00
2022-11-05T02:57:00.253Z,100.00
2022-11-05T02:59:30.593Z,100.00
2022-11-05T03:02:03.979Z,100.00
2022-11-05T03:04:34.667Z,100.00
2022-11-05T03:07:23.615Z,100.00
2022-11-05T03:10:10.383Z,100.00
2022-11-05T03:12:53.069Z,100.00
2022-11-05T03:15:35.081Z,100.00
2022-11-05T03:18:14.753Z,100.00
2022-11-05T03:20:51.452Z,100.00
2022-11-05T03:23:30.481Z,100.00
2022-11-05T03:26:08.288Z,100.00
2022-11-05T03:28:42.730Z,100.00
2022-11-05T03:31:16.960Z,100.00
2022-11-05T03:33:49.702Z,100.00
2022-11-05T03:36:25.301Z,100.00
2022-11-05T03:38:58.329Z,100.00
2022-11-05T03:41:30.668Z,100.00
2022-11-05T03:44:06.299Z,100.00
2022-11-05T03:46:41.588Z,100.00
2022-11-05T03:49:19.249Z,100.00
2022-11-05T03:51:56.023Z,100.00
2022-11-05T03:54:26.595Z,100.00
2022-11-05T03:57:07.307Z,100.00
2022-11-05T03:59:45.080Z,100.00
2022-11-05T04:02:19.042Z,100.00
2022-11-05T04:04:49.870Z,100.00
2022-11-05T04:07:37.877Z,100.00
2022-11-05T04:10:26.463Z,100.00
2022-11-05T04:13:14.756Z,100.00
2022-11-05T04:15:58.979Z,100.00
2022-11-05T04:18:29.340Z,100.00
2022-11-05T04:21:17.154Z,100.00
2022-11-05T04:24:16.686Z,100.00
2022-11-05T04:26:47.475Z,100.00
2022-11-05T04:29:35.660Z,100.00
2022-11-05T04:32:06.553Z,100.00
2022-11-05T04:34:37.006Z,100.00
2022-11-05T04:37:07.661Z,100.00
2022-11-05T04:39:38.004Z,100.00
2022-11-05T04:42:08.744Z,100.00
2022-11-05T04:44:39.537Z,100.00
2022-11-05T04:47:09.904Z,100.00
2022-11-05T04:49:40.225Z,100.00
2022-11-05T04:52:10.540Z,100.00
2022-11-05T04:54:41.208Z,100.00
2022-11-05T04:57:11.750Z,100.00
2022-11-05T04:59:42.182Z,100.00
2022-11-05T05:02:12.682Z,100.00
2022-11-05T05:04:43.072Z,100.00
2022-11-05T05:07:13.672Z,100.00
2022-11-05T05:09:44.128Z,100.00
2022-11-05T05:12:14.549Z,100.00
2022-11-05T05:14:44.928Z,100.00
2022-11-05T05:17:15.351Z,100.00
2022-11-05T05:20:05.727Z,100.00
2022-11-05T05:22:34.649Z,100.00
2022-11-05T05:25:03.835Z,100.00
2022-11-05T05:27:33.086Z,100.00
2022-11-05T05:30:02.194Z,100.00
2022-11-05T05:32:31.047Z,100.00
2022-11-05T05:34:59.901Z,100.00
2022-11-05T05:37:28.791Z,100.00
2022-11-05T05:39:57.599Z,100.00
2022-11-05T05:42:26.845Z,100.00
2022-11-05T05:44:55.642Z,100.00
2022-11-05T05:47:24.545Z,100.00
2022-11-05T05:49:53.590Z,100.00
2022-11-05T05:52:22.373Z,100.00
2022-11-05T05:54:51.443Z,100.00
2022-11-05T05:57:20.360Z,100.00
2022-11-05T05:59:49.216Z,100.00
2022-11-05T06:02:18.137Z,100.00
2022-11-05T06:04:47.052Z,100.00
2022-11-05T06:07:15.840Z,100.00
2022-11-05T06:09:44.682Z,100.00
2022-11-05T06:12:13.496Z,100.00
2022-11-05T06:14:42.445Z,100.00
2022-11-05T06:17:11.585Z,100.00
2022-11-05T06:19:40.399Z,100.00
2022-11-05T06:22:09.316Z,100.00
2022-11-05T06:24:38.140Z,100.00
2022-11-05T06:27:07.007Z,100.00
2022-11-05T06:29:35.896Z,100.00
2022-11-05T06:32:04.814Z,100.00
2022-11-05T06:34:33.698Z,100.00
2022-11-05T06:37:02.508Z,100.00
2022-11-05T06:39:31.469Z,100.00
2022-11-05T06:44:49.171Z,100.00
2022-11-05T06:47:18.014Z,100.00
2022-11-05T06:49:47.256Z,100.00
2022-11-05T06:52:16.358Z,100.00
2022-11-05T06:54:45.193Z,100.00
2022-11-05T06:57:14.086Z,100.00
2022-11-05T06:59:42.947Z,100.00
2022-11-05T07:02:12.895Z,100.00
2022-11-05T07:04:41.895Z,100.00
2022-11-05T07:07:10.686Z,100.00
2022-11-05T07:09:43.105Z,100.00
2022-11-05T07:12:12.056Z,100.00
2022-11-05T07:14:41.776Z,100.00
2022-11-05T07:21:19.176Z,100.00
2022-11-05T07:23:48.402Z,100.00
2022-11-05T07:26:17.322Z,100.00
2022-11-05T07:28:46.158Z,100.00
2022-11-05T07:31:14.990Z,100.00
2022-11-05T07:33:43.883Z,100.00
2022-11-05T07:36:12.871Z,100.00
2022-11-05T07:42:08.127Z,100.00
2022-11-05T07:44:41.914Z,100.00
2022-11-05T07:47:10.892Z,100.00
2022-11-05T07:49:39.626Z,100.00
2022-11-05T07:52:08.617Z,100.00
2022-11-05T07:54:37.489Z,100.00
2022-11-05T07:57:06.359Z,100.00
2022-11-05T07:59:35.272Z,100.00
2022-11-05T08:02:04.350Z,100.00
2022-11-05T08:04:33.422Z,100.00
2022-11-05T08:07:02.329Z,100.00
2022-11-05T08:09:31.280Z,100.00
2022-11-05T08:12:03.158Z,100.00
2022-11-05T08:14:32.387Z,100.00
2022-11-05T08:17:01.300Z,100.00
2022-11-05T08:19:30.401Z,100.00
2022-11-05T08:21:59.268Z,100.00
2022-11-05T08:24:28.104Z,100.00
2022-11-05T08:26:58.035Z,100.00
2022-11-05T08:29:26.915Z,100.00
2022-11-05T08:31:55.665Z,100.00
2022-11-05T08:34:24.685Z,100.00
2022-11-05T08:36:53.599Z,100.00
2022-11-05T08:39:23.230Z,100.00
2022-11-05T08:41:52.111Z,100.00
2022-11-05T08:44:20.932Z,100.00
2022-11-05T08:46:49.837Z,100.00
2022-11-05T08:49:18.865Z,100.00
2022-11-05T08:51:48.064Z,100.00
2022-11-05T08:54:16.896Z,100.00
2022-11-05T08:56:45.795Z,100.00
2022-11-05T08:59:14.778Z,100.00
2022-11-05T09:01:43.719Z,100.00
2022-11-05T09:04:12.824Z,100.00
2022-11-05T09:06:41.750Z,100.00
2022-11-05T09:09:10.623Z,100.00
2022-11-05T09:12:05.713Z,100.00
2022-11-05T09:14:30.010Z,100.00
2022-11-05T09:16:58.816Z,100.00
2022-11-05T09:19:27.685Z,100.00
2022-11-05T09:21:59.678Z,100.00
2022-11-05T09:24:28.607Z,100.00
2022-11-05T09:26:57.396Z,100.00
2022-11-05T09:29:26.213Z,100.00
2022-11-05T09:31:55.035Z,100.00
2022-11-05T09:34:24.459Z,100.00
2022-11-05T09:36:53.470Z,100.00
2022-11-05T09:39:22.343Z,100.00
2022-11-05T09:41:52.838Z,100.00
2022-11-05T09:44:23.578Z,100.00
2022-11-05T09:46:55.181Z,100.00
2022-11-05T09:49:27.328Z,100.00
2022-11-05T09:51:58.360Z,100.00
2022-11-05T09:54:31.530Z,100.00
2022-11-05T09:57:02.386Z,100.00
2022-11-05T09:59:36.149Z,100.00
2022-11-05T10:02:10.890Z,100.00
2022-11-05T10:04:40.700Z,100.00
2022-11-05T10:07:12.449Z,100.00
2022-11-05T10:09:47.243Z,100.00
2022-11-05T10:12:20.820Z,100.00
2022-11-05T10:14:51.256Z,100.00
2022-11-05T10:17:24.271Z,99.65
2022-11-05T10:19:56.021Z,99.97
2022-11-05T10:22:25.894Z,99.99
2022-11-05T10:24:55.886Z,99.92
2022-11-05T10:27:30.105Z,100.00
2022-11-05T10:29:58.909Z,100.00
2022-11-05T10:32:29.564Z,99.97
2022-11-05T10:35:00.007Z,99.96
2022-11-05T10:37:29.870Z,100.00
2022-11-05T10:39:58.903Z,99.94
2022-11-05T10:42:34.886Z,98.39
2022-11-05T10:45:08.950Z,98.45
2022-11-05T10:47:44.632Z,98.67
2022-11-05T10:50:14.471Z,98.71
2022-11-05T10:52:50.202Z,98.66
2022-11-05T10:55:22.041Z,98.74
2022-11-05T10:57:51.414Z,99.02
2022-11-05T11:00:21.641Z,98.28
2022-11-05T11:02:51.342Z,95.14
2022-11-05T11:05:23.024Z,94.72
2022-11-05T11:07:57.521Z,92.84
2022-11-05T11:10:27.099Z,91.70
2022-11-05T11:12:56.395Z,91.31
2022-11-05T11:15:27.464Z,91.90
2022-11-05T11:17:56.782Z,92.14
2022-11-05T11:20:27.867Z,92.46
2022-11-05T11:23:04.213Z,92.42
2022-11-05T11:25:38.778Z,91.28
2022-11-05T11:28:11.976Z,90.55
2022-11-05T11:30:40.882Z,89.09
2022-11-05T11:33:10.505Z,89.42
2022-11-05T11:35:39.868Z,88.76
2022-11-05T11:38:15.579Z,86.66
2022-11-05T11:40:44.856Z,85.13
2022-11-05T11:43:21.614Z,84.56
2022-11-05T11:45:52.401Z,86.31
2022-11-05T11:48:26.420Z,87.66
2022-11-05T11:50:56.006Z,88.41
2022-11-05T11:53:28.018Z,89.40
2022-11-05T11:56:01.678Z,88.41
2022-11-05T11:58:41.959Z,86.77
2022-11-05T12:01:26.044Z,86.42
2022-11-05T12:04:00.504Z,85.15
2022-11-05T12:06:32.984Z,84.18
2022-11-05T12:09:07.106Z,84.95
2022-11-05T12:11:40.303Z,85.29
2022-11-05T12:14:18.708Z,84.45
2022-11-05T12:17:00.327Z,84.06
2022-11-05T12:19:42.110Z,83.77
2022-11-05T12:22:20.113Z,83.95
2022-11-05T12:24:56.477Z,84.16
2022-11-05T12:27:34.428Z,85.86
2022-11-05T12:30:06.103Z,85.88
2022-11-05T12:33:00.578Z,83.80
2022-11-05T12:35:45.750Z,83.72
2022-11-05T12:38:22.802Z,81.87
2022-11-05T12:40:58.505Z,81.68
2022-11-05T12:43:33.858Z,80.70
2022-11-05T12:46:05.217Z,78.00
2022-11-05T12:48:43.333Z,75.55
2022-11-05T12:51:19.255Z,73.43
2022-11-05T12:53:52.963Z,70.44
2022-11-05T12:56:26.296Z,70.89
2022-11-05T12:58:59.669Z,66.82
2022-11-05T13:01:33.158Z,67.34
2022-11-05T13:04:06.699Z,69.09
2022-11-05T13:06:39.706Z,67.69
2022-11-05T13:09:12.302Z,67.92
2022-11-05T13:11:45.154Z,68.35
2022-11-05T13:14:15.645Z,69.78
2022-11-05T13:16:47.322Z,69.96
2022-11-05T13:19:18.595Z,71.20
2022-11-05T13:21:51.017Z,72.03
2022-11-05T13:24:21.557Z,72.82
2022-11-05T13:26:53.712Z,73.97
2022-11-05T13:29:26.428Z,74.82
2022-11-05T13:31:58.886Z,75.99
2022-11-05T13:34:27.778Z,76.68
2022-11-05T13:37:16.197Z,77.28
2022-11-05T13:39:47.728Z,78.03
2022-11-05T13:42:38.118Z,78.18
2022-11-05T13:45:22.411Z,78.94
2022-11-05T13:47:56.940Z,79.28
2022-11-05T13:50:46.082Z,79.78
2022-11-05T13:53:35.765Z,79.89
2022-11-05T13:56:11.082Z,79.85
2022-11-05T13:58:48.385Z,80.06
2022-11-05T14:01:22.783Z,80.18
2022-11-05T14:03:52.565Z,80.12
2022-11-05T14:06:26.197Z,79.97
2022-11-05T14:08:57.631Z,80.69
2022-11-05T14:11:28.159Z,80.97
2022-11-05T14:13:58.179Z,82.23
2022-11-05T14:16:29.462Z,83.11
2022-11-05T14:19:23.383Z,83.22
2022-11-05T14:21:53.237Z,83.77
2022-11-05T14:24:39.775Z,84.17
2022-11-05T14:27:25.821Z,85.35
2022-11-05T14:29:54.777Z,85.54
2022-11-05T14:32:26.926Z,85.56
2022-11-05T14:34:57.310Z,85.49
2022-11-05T14:37:28.011Z,85.57
2022-11-05T14:39:57.408Z,84.88
2022-11-05T14:42:30.466Z,85.61
2022-11-05T14:45:01.940Z,84.06
2022-11-05T14:47:32.728Z,82.32
2022-11-05T14:50:04.516Z,82.44
2022-11-05T14:52:33.817Z,82.96
2022-11-05T14:55:03.662Z,84.24
2022-11-05T14:57:50.707Z,84.84
2022-11-05T15:00:36.516Z,85.05
2022-11-05T15:03:25.533Z,85.93
2022-11-05T15:06:04.167Z,84.84
2022-11-05T15:08:37.492Z,85.41
2022-11-05T15:11:12.455Z,86.29
2022-11-05T15:13:49.087Z,85.92
2022-11-05T15:16:20.636Z,86.58
2022-11-05T15:18:49.721Z,87.42
2022-11-05T15:21:19.619Z,88.81
2022-11-05T15:23:49.731Z,89.41
2022-11-05T15:26:23.239Z,89.23
2022-11-05T15:28:52.728Z,89.47
2022-11-05T15:31:26.462Z,89.51
2022-11-05T15:34:10.596Z,89.54
2022-11-05T15:36:39.572Z,88.11
2022-11-05T15:39:29.557Z,87.68
2022-11-05T15:41:59.863Z,86.03
2022-11-05T15:44:30.055Z,85.95
2022-11-05T15:47:09.360Z,86.55
2022-11-05T15:49:38.373Z,85.93
2022-11-05T15:52:09.146Z,86.12
2022-11-05T15:54:38.339Z,86.65
2022-11-05T15:57:16.119Z,86.81
2022-11-05T16:03:00.746Z,87.32
2022-11-05T16:05:31.239Z,87.48
2022-11-05T16:08:00.698Z,87.56
2022-11-05T16:10:32.047Z,87.65
2022-11-05T16:13:14.581Z,87.92
2022-11-05T16:15:53.642Z,88.54
2022-11-05T16:18:24.415Z,88.98
2022-11-05T16:21:04.438Z,89.20
2022-11-05T16:23:44.330Z,90.30
2022-11-05T16:26:55.976Z,91.91
2022-11-05T16:29:17.499Z,93.00
2022-11-05T16:31:51.088Z,94.73
2022-11-05T16:34:25.701Z,96.01
2022-11-05T16:36:56.424Z,96.64
2022-11-05T16:39:25.458Z,97.72
2022-11-05T16:41:54.282Z,98.95
2022-11-05T16:44:23.082Z,99.39
2022-11-05T16:46:52.069Z,99.98
2022-11-05T16:49:21.712Z,99.97
2022-11-05T16:51:50.668Z,100.00
2022-11-05T16:54:19.456Z,100.00
2022-11-05T16:56:48.229Z,100.00
2022-11-05T16:59:17.217Z,100.00
2022-11-05T17:01:49.261Z,100.00
2022-11-05T17:04:20.524Z,100.00
2022-11-05T17:06:49.925Z,100.00
2022-11-05T17:09:18.925Z,100.00
2022-11-05T17:11:47.808Z,100.00
2022-11-05T17:14:16.809Z,100.00
2022-11-05T17:16:45.705Z,100.00
2022-11-05T17:19:16.396Z,100.00
2022-11-05T17:21:45.304Z,100.00
2022-11-05T17:24:14.052Z,100.00
2022-11-05T17:26:42.920Z,100.00
2022-11-05T17:29:11.699Z,100.00
2022-11-05T17:31:41.571Z,100.00
2022-11-05T17:34:11.244Z,100.00
2022-11-05T17:36:40.080Z,100.00
2022-11-05T17:39:10.877Z,100.00
2022-11-05T17:41:39.643Z,100.00
2022-11-05T17:44:10.275Z,100.00
2022-11-05T17:46:39.046Z,100.00
2022-11-05T17:49:08.016Z,100.00
2022-11-05T17:51:36.924Z,100.00
2022-11-05T17:54:07.647Z,100.00
2022-11-05T17:56:43.261Z,100.00
2022-11-05T17:59:13.228Z,100.00
2022-11-05T18:01:43.766Z,100.00
2022-11-05T18:04:13.439Z,100.00
2022-11-05T18:06:42.451Z,100.00
2022-11-05T18:09:11.681Z,100.00
2022-11-05T18:11:40.967Z,100.00
2022-11-05T18:14:09.779Z,100.00
2022-11-05T18:16:38.653Z,100.00
2022-11-05T18:19:07.426Z,100.00
2022-11-05T18:21:36.255Z,100.00
2022-11-05T18:24:05.512Z,100.00
2022-11-05T18:26:34.842Z,100.00
2022-11-05T18:29:04.734Z,100.00
2022-11-05T18:31:33.628Z,100.00
2022-11-05T18:34:02.470Z,100.00
2022-11-05T18:36:31.960Z,100.00
2022-11-05T18:39:02.227Z,100.00
2022-11-05T18:41:31.083Z,100.00
2022-11-05T18:44:03.414Z,100.00
2022-11-05T18:49:22.288Z,100.00
2022-11-05T18:51:51.357Z,100.00
2022-11-05T18:54:20.228Z,100.00
2022-11-05T18:56:49.027Z,100.00
2022-11-05T18:59:36.787Z,100.00
2022-11-05T19:02:07.022Z,100.00
2022-11-05T19:04:37.518Z,100.00
2022-11-05T19:07:07.320Z,100.00
2022-11-05T19:09:36.663Z,100.00
2022-11-05T19:12:07.083Z,100.00
2022-11-05T19:14:36.284Z,100.00
2022-11-05T19:17:05.154Z,100.00
2022-11-05T19:19:34.246Z,100.00
2022-11-05T19:22:06.026Z,100.00
2022-11-05T19:24:36.078Z,100.00
2022-11-05T19:27:05.103Z,100.00
2022-11-05T19:29:34.143Z,100.00
2022-11-05T19:32:03.711Z,100.00
2022-11-05T19:34:32.649Z,100.00
2022-11-05T19:37:01.723Z,100.00
2022-11-05T19:39:30.788Z,100.00
2022-11-05T19:42:04.018Z,100.00
2022-11-05T19:44:33.891Z,100.00
2022-11-05T19:47:02.698Z,100.00
2022-11-05T19:49:31.985Z,100.00
2022-11-05T19:52:00.929Z,100.00
2022-11-05T19:54:30.127Z,100.00
2022-11-05T19:56:59.747Z,100.00
2022-11-05T19:59:28.957Z,100.00
2022-11-05T20:01:58.042Z,100.00
2022-11-05T20:04:27.112Z,100.00
2022-11-05T20:06:56.042Z,100.00
2022-11-05T20:09:25.063Z,100.00
2022-11-05T20:11:54.949Z,100.00
2022-11-05T20:14:25.077Z,100.00
2022-11-05T20:16:54.447Z,100.00
2022-11-05T20:19:24.124Z,100.00
2022-11-05T20:21:53.353Z,100.00
2022-11-05T20:24:25.368Z,100.00
2022-11-05T20:26:56.189Z,100.00
2022-11-05T20:29:30.587Z,100.00
2022-11-05T20:32:04.089Z,100.00
2022-11-05T20:34:33.737Z,100.00
2022-11-05T20:37:02.756Z,100.00
2022-11-05T20:39:31.636Z,100.00
2022-11-05T20:42:01.376Z,100.00
2022-11-05T20:44:30.207Z,100.00
2022-11-05T20:46:59.144Z,100.00
2022-11-05T20:49:28.069Z,100.00
2022-11-05T20:51:57.620Z,100.00
2022-11-05T20:54:26.624Z,100.00
2022-11-05T20:56:55.723Z,100.00
2022-11-05T20:59:24.707Z,100.00
2022-11-05T21:01:54.034Z,100.00
2022-11-05T21:04:23.116Z,100.00
2022-11-05T21:06:53.302Z,100.00
2022-11-05T21:09:22.129Z,100.00
2022-11-05T21:12:09.020Z,100.00
2022-11-05T21:14:38.141Z,100.00
2022-11-05T21:17:07.652Z,100.00
2022-11-05T21:19:36.815Z,100.00
2022-11-05T21:22:06.608Z,100.00
2022-11-05T21:24:35.876Z,100.00
2022-11-05T21:27:05.293Z,100.00
2022-11-05T21:29:34.275Z,100.00
2022-11-05T21:32:03.195Z,100.00
2022-11-05T21:34:34.460Z,100.00
2022-11-05T21:37:03.336Z,100.00
2022-11-05T21:39:34.071Z,100.00
2022-11-05T21:42:03.151Z,100.00
2022-11-05T21:44:32.155Z,100.00
2022-11-05T21:47:01.089Z,100.00
2022-11-05T21:49:29.983Z,100.00
2022-11-05T21:52:16.545Z,100.00
2022-11-05T21:55:03.315Z,100.00
2022-11-05T21:57:50.272Z,100.00
2022-11-05T22:00:19.522Z,100.00
2022-11-05T22:02:48.803Z,100.00
2022-11-05T22:05:18.360Z,100.00
2022-11-05T22:07:47.370Z,100.00
2022-11-05T22:10:17.251Z,100.00
2022-11-05T22:12:46.633Z,100.00
2022-11-05T22:15:15.679Z,100.00
2022-11-05T22:17:47.176Z,100.00
2022-11-05T22:20:16.919Z,100.00
2022-11-05T22:22:45.802Z,100.00
2022-11-05T22:25:15.069Z,100.00
2022-11-05T22:27:44.652Z,100.00
2022-11-05T22:30:14.739Z,100.00
2022-11-05T22:32:43.705Z,100.00
2022-11-05T22:35:12.610Z,100.00
2022-11-05T22:37:41.592Z,100.00
2022-11-05T22:40:10.985Z,100.00
2022-11-05T22:42:39.929Z,100.00
2022-11-05T22:45:09.712Z,100.00
2022-11-05T22:47:38.637Z,100.00
2022-11-05T22:50:08.463Z,100.00
2022-11-05T22:52:37.390Z,100.00
2022-11-05T22:55:06.667Z,100.00
2022-11-05T22:57:35.564Z,100.00
2022-11-05T23:00:06.722Z,100.00
2022-11-05T23:02:35.879Z,100.00
2022-11-05T23:05:04.936Z,100.00
2022-11-05T23:07:51.451Z,100.00
2022-11-05T23:10:38.208Z,100.00
2022-11-05T23:13:07.939Z,100.00
2022-11-05T23:15:54.401Z,100.00
2022-11-05T23:18:40.958Z,100.00
2022-11-05T23:21:27.899Z,100.00
2022-11-05T23:24:05.442Z,100.00
2022-11-05T23:26:53.943Z,100.00
2022-11-05T23:29:23.883Z,100.00
2022-11-05T23:32:10.585Z,100.00
2022-11-05T23:34:39.601Z,100.00
2022-11-05T23:37:26.441Z,100.00
2022-11-05T23:39:55.396Z,100.00
2022-11-05T23:42:42.809Z,100.00
2022-11-05T23:45:29.971Z,100.00
2022-11-05T23:48:16.386Z,100.00
2022-11-05T23:50:46.836Z,100.00
2022-11-05T23:53:15.808Z,100.00
2022-11-05T23:55:44.909Z,100.00
2022-11-05T23:58:14.519Z,100.00
